Aviation Digital Data Service (ADDS)

Output produced by METARs form (1556 UTC 20 May 2018)
found at http://aviationweather.gov/adds/metars/
 
KERI 201258Z 2013/2112 28008KT 5SM BR OVC010 
     FM201400 30006KT P6SM SCT015 BKN030 
     FM201600 30008KT P6SM BKN035 
     FM210300 06005KT P6SM SCT100